Southampton, NY

12:13 AM EST on March 03, 2015 (GMT -0500)
SoMAS Southampton | Change Station
CLOSE
Current Station
Personal Weather Station
Location: Shinnecock Hills, NY
Elevation: 13 ft
Nearby Weather Stations

Elev 13 ft 40.88 °N, 72.44 °W | Updated 3 minutes ago

Clear
Clear
25.1 °F
Feels Like 18 °F
N
6.0
Wind Variable Wind from NNW
Gusts 6.0 mph

Today
High -- | Low -- °F
--% Chance of Precip.
Yesterday
High -- | Low -- °F
Precip. -- in
6:21 AM 5:42 PM
Waxing Gibbous, 94% visible
Pressure 30.35 in
Visibility 10.0 miles
Clouds Clear
Windchill 18 °F
Dew Point 16 °F
Humidity 67%
Rainfall 0.00 in
Snow Depth Not available.
UV 0.0 out of 12
Pollen .40 out of 12
Air Quality Not available.
Flu Activity Not available.
METAR KFOK 030453Z AUTO 33012KT 10SM CLR M03/M13 A3034 RMK AO2 SLP275 T10281128 400281033 TSNO

More Conditions Fewer Conditions

Pressure 30.35 in
Visibility 10.0 miles
Clouds Clear
Windchill 18 °F
Dew Point 16 °F
Humidity 67%
Rainfall 0.00 in
Snow Depth Not available.
UV 0.0 out of 12
Pollen .40 out of 12
Air Quality Not available.
Flu Activity Not available.
METAR KFOK 030453Z AUTO 33012KT 10SM CLR M03/M13 A3034 RMK AO2 SLP275 T10281128 400281033 TSNO

More Conditions Fewer Conditions

10-Day Weather Forecast

Almanac

Astronomy

Mar. 03, 2015 Rise Set
Actual Time
Civil Twilight
Nautical Twilight
Astronomical Twilight
Moon
Length of Visible Light
Length of Day
Tomorrow will be .
, % of the Moon is Illuminated

Today's Extremes

State Highs State Lows

Community

WunderPhotos

Upload Photos

1,802,066 photos uploaded!

WunderBlogs® & News

Nearby

Air Quality

  Air Quality AQ Index Pollutant
Not available.

Snow Depth

Station Depth Elevation

Earthquake Activity

City Distance Mag. Time & Date
Minimum magnitude displayed is 2.5.

Coastal Water Temperatures

Place Temperature

Nearby Weather Stations